sensor_id;sensor_type;location;lat;lon;timestamp;temperature;humidity
1686;DHT22;840;47.980;7.830;2023-12-20T00:00:48;8.10;99.90
1686;DHT22;840;47.980;7.830;2023-12-20T00:03:15;8.10;99.90
1686;DHT22;840;47.980;7.830;2023-12-20T00:05:41;8.20;99.90
1686;DHT22;840;47.980;7.830;2023-12-20T00:08:08;8.10;99.90
1686;DHT22;840;47.980;7.830;2023-12-20T00:10:35;8.20;99.90
1686;DHT22;840;47.980;7.830;2023-12-20T00:13:01;8.10;99.90
1686;DHT22;840;47.980;7.830;2023-12-20T00:15:29;8.20;99.90
1686;DHT22;840;47.980;7.830;2023-12-20T00:17:56;8.20;99.90
1686;DHT22;840;47.980;7.830;2023-12-20T00:20:23;8.20;99.90
1686;DHT22;840;47.980;7.830;2023-12-20T00:22:49;8.20;99.90
1686;DHT22;840;47.980;7.830;2023-12-20T00:25:16;8.20;99.90
1686;DHT22;840;47.980;7.830;2023-12-20T00:27:43;8.20;99.90
1686;DHT22;840;47.980;7.830;2023-12-20T00:30:10;8.20;99.90
1686;DHT22;840;47.980;7.830;2023-12-20T00:32:39;8.10;99.90
1686;DHT22;840;47.980;7.830;2023-12-20T00:35:11;8.20;99.90
1686;DHT22;840;47.980;7.830;2023-12-20T00:37:38;8.10;99.90
1686;DHT22;840;47.980;7.830;2023-12-20T00:40:05;8.20;99.90
1686;DHT22;840;47.980;7.830;2023-12-20T00:42:33;8.20;99.90
1686;DHT22;840;47.980;7.830;2023-12-20T00:45:00;8.20;99.90
1686;DHT22;840;47.980;7.830;2023-12-20T00:47:26;8.10;99.90
1686;DHT22;840;47.980;7.830;2023-12-20T00:49:54;8.10;99.90
1686;DHT22;840;47.980;7.830;2023-12-20T00:52:21;8.00;99.90
1686;DHT22;840;47.980;7.830;2023-12-20T00:54:48;8.00;99.90
1686;DHT22;840;47.980;7.830;2023-12-20T00:57:15;8.00;99.90
1686;DHT22;840;47.980;7.830;2023-12-20T00:59:41;7.90;99.90
1686;DHT22;840;47.980;7.830;2023-12-20T01:02:08;7.80;99.90
1686;DHT22;840;47.980;7.830;2023-12-20T01:04:35;7.70;99.90
1686;DHT22;840;47.980;7.830;2023-12-20T01:07:03;7.70;99.90
1686;DHT22;840;47.980;7.830;2023-12-20T01:09:30;7.60;99.90
1686;DHT22;840;47.980;7.830;2023-12-20T01:11:57;7.60;99.90
1686;DHT22;840;47.980;7.830;2023-12-20T01:14:23;7.50;99.90
1686;DHT22;840;47.980;7.830;2023-12-20T01:16:50;7.50;99.90
1686;DHT22;840;47.980;7.830;2023-12-20T01:19:17;7.50;99.90
1686;DHT22;840;47.980;7.830;2023-12-20T01:21:43;7.40;99.90
1686;DHT22;840;47.980;7.830;2023-12-20T01:24:11;7.40;99.90
1686;DHT22;840;47.980;7.830;2023-12-20T01:26:38;7.30;99.90
1686;DHT22;840;47.980;7.830;2023-12-20T01:29:05;7.30;99.90
1686;DHT22;840;47.980;7.830;2023-12-20T01:31:31;7.20;99.90
1686;DHT22;840;47.980;7.830;2023-12-20T01:33:58;7.20;99.90
1686;DHT22;840;47.980;7.830;2023-12-20T01:36:25;7.20;99.90
1686;DHT22;840;47.980;7.830;2023-12-20T01:38:52;7.20;99.90
1686;DHT22;840;47.980;7.830;2023-12-20T01:41:20;7.20;99.90
1686;DHT22;840;47.980;7.830;2023-12-20T01:43:47;7.20;99.90
1686;DHT22;840;47.980;7.830;2023-12-20T01:46:14;7.20;99.90
1686;DHT22;840;47.980;7.830;2023-12-20T01:48:41;7.20;99.90
1686;DHT22;840;47.980;7.830;2023-12-20T01:51:08;7.10;99.90
1686;DHT22;840;47.980;7.830;2023-12-20T01:53:35;7.10;99.90
1686;DHT22;840;47.980;7.830;2023-12-20T01:56:03;7.10;99.90
1686;DHT22;840;47.980;7.830;2023-12-20T01:58:32;7.10;99.90
1686;DHT22;840;47.980;7.830;2023-12-20T02:00:58;7.10;99.90
1686;DHT22;840;47.980;7.830;2023-12-20T02:03:25;7.10;99.90
1686;DHT22;840;47.980;7.830;2023-12-20T02:05:53;7.10;99.90
1686;DHT22;840;47.980;7.830;2023-12-20T02:08:19;7.10;99.90
1686;DHT22;840;47.980;7.830;2023-12-20T02:10:45;7.10;99.90
1686;DHT22;840;47.980;7.830;2023-12-20T02:13:12;7.10;99.90
1686;DHT22;840;47.980;7.830;2023-12-20T02:15:40;7.10;99.90
1686;DHT22;840;47.980;7.830;2023-12-20T02:18:09;7.10;99.90
1686;DHT22;840;47.980;7.830;2023-12-20T02:20:35;7.10;99.90
1686;DHT22;840;47.980;7.830;2023-12-20T02:23:03;7.10;99.90
1686;DHT22;840;47.980;7.830;2023-12-20T02:25:30;7.10;99.90
1686;DHT22;840;47.980;7.830;2023-12-20T02:27:57;7.10;99.90
1686;DHT22;840;47.980;7.830;2023-12-20T02:30:24;7.10;99.90
1686;DHT22;840;47.980;7.830;2023-12-20T02:32:51;7.10;99.90
1686;DHT22;840;47.980;7.830;2023-12-20T02:35:18;7.10;99.90
1686;DHT22;840;47.980;7.830;2023-12-20T02:37:45;7.10;99.90
1686;DHT22;840;47.980;7.830;2023-12-20T02:40:13;7.10;99.90
1686;DHT22;840;47.980;7.830;2023-12-20T02:42:40;7.10;99.90
1686;DHT22;840;47.980;7.830;2023-12-20T02:45:07;7.10;99.90
1686;DHT22;840;47.980;7.830;2023-12-20T02:47:34;7.10;99.90
1686;DHT22;840;47.980;7.830;2023-12-20T02:50:01;7.10;99.90
1686;DHT22;840;47.980;7.830;2023-12-20T02:52:29;7.10;99.90
1686;DHT22;840;47.980;7.830;2023-12-20T02:54:55;7.10;99.90
1686;DHT22;840;47.980;7.830;2023-12-20T02:57:23;7.10;99.90
1686;DHT22;840;47.980;7.830;2023-12-20T02:59:50;7.10;99.90
1686;DHT22;840;47.980;7.830;2023-12-20T03:02:17;7.10;99.90
1686;DHT22;840;47.980;7.830;2023-12-20T03:04:43;7.10;99.90
1686;DHT22;840;47.980;7.830;2023-12-20T03:07:10;7.10;99.90
1686;DHT22;840;47.980;7.830;2023-12-20T03:09:37;7.10;99.90
1686;DHT22;840;47.980;7.830;2023-12-20T03:12:04;7.10;99.90
1686;DHT22;840;47.980;7.830;2023-12-20T03:14:32;7.10;99.90
1686;DHT22;840;47.980;7.830;2023-12-20T03:16:59;7.10;99.90
1686;DHT22;840;47.980;7.830;2023-12-20T03:19:26;7.00;99.90
1686;DHT22;840;47.980;7.830;2023-12-20T03:21:52;7.10;99.90
1686;DHT22;840;47.980;7.830;2023-12-20T03:24:19;7.00;99.90
1686;DHT22;840;47.980;7.830;2023-12-20T03:26:47;7.00;99.90
1686;DHT22;840;47.980;7.830;2023-12-20T03:29:14;7.00;99.90
1686;DHT22;840;47.980;7.830;2023-12-20T03:31:42;7.00;99.90
1686;DHT22;840;47.980;7.830;2023-12-20T03:34:08;7.00;99.90
1686;DHT22;840;47.980;7.830;2023-12-20T03:36:36;7.00;99.90
1686;DHT22;840;47.980;7.830;2023-12-20T03:39:02;7.00;99.90
1686;DHT22;840;47.980;7.830;2023-12-20T03:41:29;7.00;99.90
1686;DHT22;840;47.980;7.830;2023-12-20T03:43:56;7.00;99.90
1686;DHT22;840;47.980;7.830;2023-12-20T03:46:23;7.00;99.90
1686;DHT22;840;47.980;7.830;2023-12-20T03:48:51;7.00;99.90
1686;DHT22;840;47.980;7.830;2023-12-20T03:51:17;7.00;99.90
1686;DHT22;840;47.980;7.830;2023-12-20T03:53:44;7.00;99.90
1686;DHT22;840;47.980;7.830;2023-12-20T03:56:11;7.10;99.90
1686;DHT22;840;47.980;7.830;2023-12-20T03:58:37;7.00;99.90
1686;DHT22;840;47.980;7.830;2023-12-20T04:01:09;7.10;99.90
1686;DHT22;840;47.980;7.830;2023-12-20T04:03:37;7.10;99.90
1686;DHT22;840;47.980;7.830;2023-12-20T04:06:05;7.00;99.90
1686;DHT22;840;47.980;7.830;2023-12-20T04:08:32;7.10;99.90
1686;DHT22;840;47.980;7.830;2023-12-20T04:10:59;7.00;99.90
1686;DHT22;840;47.980;7.830;2023-12-20T04:13:25;7.00;99.90
1686;DHT22;840;47.980;7.830;2023-12-20T04:15:52;7.00;99.90
1686;DHT22;840;47.980;7.830;2023-12-20T04:18:18;7.10;99.90
1686;DHT22;840;47.980;7.830;2023-12-20T04:20:45;7.10;99.90
1686;DHT22;840;47.980;7.830;2023-12-20T04:23:13;7.10;99.90
1686;DHT22;840;47.980;7.830;2023-12-20T04:25:40;7.00;99.90
1686;DHT22;840;47.980;7.830;2023-12-20T04:28:07;7.10;99.90
1686;DHT22;840;47.980;7.830;2023-12-20T04:30:33;7.10;99.90
1686;DHT22;840;47.980;7.830;2023-12-20T04:33:00;7.10;99.90
1686;DHT22;840;47.980;7.830;2023-12-20T04:35:27;7.20;99.90
1686;DHT22;840;47.980;7.830;2023-12-20T04:37:54;7.20;99.90
1686;DHT22;840;47.980;7.830;2023-12-20T04:40:22;7.20;99.90
1686;DHT22;840;47.980;7.830;2023-12-20T04:42:49;7.20;99.90
1686;DHT22;840;47.980;7.830;2023-12-20T04:45:16;7.20;99.90
1686;DHT22;840;47.980;7.830;2023-12-20T04:47:44;7.20;99.90
1686;DHT22;840;47.980;7.830;2023-12-20T04:50:12;7.20;99.90
1686;DHT22;840;47.980;7.830;2023-12-20T04:52:40;7.20;99.90
1686;DHT22;840;47.980;7.830;2023-12-20T04:55:07;7.20;99.90
1686;DHT22;840;47.980;7.830;2023-12-20T04:57:35;7.20;99.90
1686;DHT22;840;47.980;7.830;2023-12-20T05:00:02;7.20;99.90
1686;DHT22;840;47.980;7.830;2023-12-20T05:02:29;7.20;99.90
1686;DHT22;840;47.980;7.830;2023-12-20T05:04:56;7.20;99.90
1686;DHT22;840;47.980;7.830;2023-12-20T05:07:23;7.30;99.90
1686;DHT22;840;47.980;7.830;2023-12-20T05:09:50;7.20;99.90
1686;DHT22;840;47.980;7.830;2023-12-20T05:12:16;7.20;99.90
1686;DHT22;840;47.980;7.830;2023-12-20T05:14:44;7.30;99.90
1686;DHT22;840;47.980;7.830;2023-12-20T05:17:11;7.30;99.90
1686;DHT22;840;47.980;7.830;2023-12-20T05:19:38;7.30;99.90
1686;DHT22;840;47.980;7.830;2023-12-20T05:22:04;7.30;99.90
1686;DHT22;840;47.980;7.830;2023-12-20T05:24:31;7.30;99.90
1686;DHT22;840;47.980;7.830;2023-12-20T05:26:58;7.30;99.90
1686;DHT22;840;47.980;7.830;2023-12-20T05:29:24;7.30;99.90
1686;DHT22;840;47.980;7.830;2023-12-20T05:31:52;7.30;99.90
1686;DHT22;840;47.980;7.830;2023-12-20T05:34:19;7.30;99.90
1686;DHT22;840;47.980;7.830;2023-12-20T05:36:46;7.30;99.90
1686;DHT22;840;47.980;7.830;2023-12-20T05:39:13;7.30;99.90
1686;DHT22;840;47.980;7.830;2023-12-20T05:41:40;7.30;99.90
1686;DHT22;840;47.980;7.830;2023-12-20T05:44:06;7.30;99.90
1686;DHT22;840;47.980;7.830;2023-12-20T05:46:33;7.30;99.90
1686;DHT22;840;47.980;7.830;2023-12-20T05:49:01;7.30;99.90
1686;DHT22;840;47.980;7.830;2023-12-20T05:51:28;7.40;99.90
1686;DHT22;840;47.980;7.830;2023-12-20T05:53:55;7.40;99.90
1686;DHT22;840;47.980;7.830;2023-12-20T05:56:22;7.40;99.90
1686;DHT22;840;47.980;7.830;2023-12-20T05:58:48;7.40;99.90
1686;DHT22;840;47.980;7.830;2023-12-20T06:01:15;7.40;99.90
1686;DHT22;840;47.980;7.830;2023-12-20T06:03:43;7.40;99.90
1686;DHT22;840;47.980;7.830;2023-12-20T06:06:12;7.50;99.90
1686;DHT22;840;47.980;7.830;2023-12-20T06:08:40;7.50;99.90
1686;DHT22;840;47.980;7.830;2023-12-20T06:11:08;7.50;99.90
1686;DHT22;840;47.980;7.830;2023-12-20T06:13:35;7.50;99.90
1686;DHT22;840;47.980;7.830;2023-12-20T06:16:03;7.50;99.90
1686;DHT22;840;47.980;7.830;2023-12-20T06:18:30;7.50;99.90
1686;DHT22;840;47.980;7.830;2023-12-20T06:20:56;7.50;99.90
1686;DHT22;840;47.980;7.830;2023-12-20T06:23:24;7.50;99.90
1686;DHT22;840;47.980;7.830;2023-12-20T06:25:52;7.50;99.90
1686;DHT22;840;47.980;7.830;2023-12-20T06:28:19;7.50;99.90
1686;DHT22;840;47.980;7.830;2023-12-20T06:30:45;7.50;99.90
1686;DHT22;840;47.980;7.830;2023-12-20T06:33:14;7.50;99.90
1686;DHT22;840;47.980;7.830;2023-12-20T06:35:41;7.60;99.90
1686;DHT22;840;47.980;7.830;2023-12-20T06:38:08;7.60;99.90
1686;DHT22;840;47.980;7.830;2023-12-20T06:40:36;7.60;99.90
1686;DHT22;840;47.980;7.830;2023-12-20T06:43:03;7.60;99.90
1686;DHT22;840;47.980;7.830;2023-12-20T06:45:29;7.60;99.90
1686;DHT22;840;47.980;7.830;2023-12-20T06:47:56;7.60;99.90
1686;DHT22;840;47.980;7.830;2023-12-20T06:50:23;7.60;99.90
1686;DHT22;840;47.980;7.830;2023-12-20T06:52:50;7.60;99.90
1686;DHT22;840;47.980;7.830;2023-12-20T06:55:18;7.60;99.90
1686;DHT22;840;47.980;7.830;2023-12-20T06:57:46;7.60;99.90
1686;DHT22;840;47.980;7.830;2023-12-20T07:00:13;7.70;99.90
1686;DHT22;840;47.980;7.830;2023-12-20T07:02:40;7.60;99.90
1686;DHT22;840;47.980;7.830;2023-12-20T07:05:07;7.60;99.90
1686;DHT22;840;47.980;7.830;2023-12-20T07:07:34;7.60;99.90
1686;DHT22;840;47.980;7.830;2023-12-20T07:10:00;7.70;99.90
1686;DHT22;840;47.980;7.830;2023-12-20T07:12:27;7.70;99.90
1686;DHT22;840;47.980;7.830;2023-12-20T07:14:55;7.70;99.90
1686;DHT22;840;47.980;7.830;2023-12-20T07:17:22;7.70;99.90
1686;DHT22;840;47.980;7.830;2023-12-20T07:19:49;7.70;99.90
1686;DHT22;840;47.980;7.830;2023-12-20T07:22:15;7.70;99.90
1686;DHT22;840;47.980;7.830;2023-12-20T07:24:42;7.70;99.90
1686;DHT22;840;47.980;7.830;2023-12-20T07:27:09;7.70;99.90
1686;DHT22;840;47.980;7.830;2023-12-20T07:29:36;7.70;99.90
1686;DHT22;840;47.980;7.830;2023-12-20T07:32:04;7.70;99.90
1686;DHT22;840;47.980;7.830;2023-12-20T07:34:31;7.70;99.90
1686;DHT22;840;47.980;7.830;2023-12-20T07:36:58;7.70;99.90
1686;DHT22;840;47.980;7.830;2023-12-20T07:39:24;7.80;99.90
1686;DHT22;840;47.980;7.830;2023-12-20T07:41:51;7.80;99.90
1686;DHT22;840;47.980;7.830;2023-12-20T07:44:18;7.80;99.90
1686;DHT22;840;47.980;7.830;2023-12-20T07:46:45;7.80;99.90
1686;DHT22;840;47.980;7.830;2023-12-20T07:49:13;7.90;99.90
1686;DHT22;840;47.980;7.830;2023-12-20T07:51:39;7.90;99.90
1686;DHT22;840;47.980;7.830;2023-12-20T07:54:06;7.90;99.90
1686;DHT22;840;47.980;7.830;2023-12-20T07:56:33;7.90;99.90
1686;DHT22;840;47.980;7.830;2023-12-20T07:59:00;7.90;99.90
1686;DHT22;840;47.980;7.830;2023-12-20T08:01:27;7.90;99.90
1686;DHT22;840;47.980;7.830;2023-12-20T08:03:53;7.90;99.90
1686;DHT22;840;47.980;7.830;2023-12-20T08:06:21;7.90;99.90
1686;DHT22;840;47.980;7.830;2023-12-20T08:08:49;8.00;99.90
1686;DHT22;840;47.980;7.830;2023-12-20T08:11:15;7.90;99.90
1686;DHT22;840;47.980;7.830;2023-12-20T08:13:42;7.90;99.90
1686;DHT22;840;47.980;7.830;2023-12-20T08:16:09;7.90;99.90
1686;DHT22;840;47.980;7.830;2023-12-20T08:18:38;7.90;99.90
1686;DHT22;840;47.980;7.830;2023-12-20T08:21:06;8.00;99.90
1686;DHT22;840;47.980;7.830;2023-12-20T08:23:34;8.00;99.90
1686;DHT22;840;47.980;7.830;2023-12-20T08:26:04;8.00;99.90
1686;DHT22;840;47.980;7.830;2023-12-20T08:28:30;8.00;99.90
1686;DHT22;840;47.980;7.830;2023-12-20T08:30:57;7.90;99.90
1686;DHT22;840;47.980;7.830;2023-12-20T08:33:24;8.00;99.90
1686;DHT22;840;47.980;7.830;2023-12-20T08:35:51;8.00;99.90
1686;DHT22;840;47.980;7.830;2023-12-20T08:38:18;8.00;99.90
1686;DHT22;840;47.980;7.830;2023-12-20T08:40:46;7.90;99.90
1686;DHT22;840;47.980;7.830;2023-12-20T08:43:13;8.00;99.90
1686;DHT22;840;47.980;7.830;2023-12-20T08:45:40;8.00;99.90
1686;DHT22;840;47.980;7.830;2023-12-20T08:48:07;8.00;99.90
1686;DHT22;840;47.980;7.830;2023-12-20T08:50:34;8.00;99.90
1686;DHT22;840;47.980;7.830;2023-12-20T08:53:00;8.00;99.90
1686;DHT22;840;47.980;7.830;2023-12-20T08:55:27;8.00;99.90
1686;DHT22;840;47.980;7.830;2023-12-20T08:57:57;8.10;99.90
1686;DHT22;840;47.980;7.830;2023-12-20T09:00:23;8.00;99.90
1686;DHT22;840;47.980;7.830;2023-12-20T09:02:53;8.10;99.90
1686;DHT22;840;47.980;7.830;2023-12-20T09:05:19;8.10;99.90
1686;DHT22;840;47.980;7.830;2023-12-20T09:07:46;8.10;99.90
1686;DHT22;840;47.980;7.830;2023-12-20T09:10:13;8.10;99.90
1686;DHT22;840;47.980;7.830;2023-12-20T09:12:39;8.10;99.90
1686;DHT22;840;47.980;7.830;2023-12-20T09:15:08;8.10;99.90
1686;DHT22;840;47.980;7.830;2023-12-20T09:17:35;8.10;99.90
1686;DHT22;840;47.980;7.830;2023-12-20T09:20:00;8.10;99.90
1686;DHT22;840;47.980;7.830;2023-12-20T09:22:27;8.10;99.90
1686;DHT22;840;47.980;7.830;2023-12-20T09:24:54;8.10;99.90
1686;DHT22;840;47.980;7.830;2023-12-20T09:27:21;8.10;99.90
1686;DHT22;840;47.980;7.830;2023-12-20T09:29:47;8.10;99.90
1686;DHT22;840;47.980;7.830;2023-12-20T09:32:16;8.10;99.90
1686;DHT22;840;47.980;7.830;2023-12-20T09:34:43;8.10;99.90
1686;DHT22;840;47.980;7.830;2023-12-20T09:37:09;8.10;99.90
1686;DHT22;840;47.980;7.830;2023-12-20T09:39:36;8.00;99.90
1686;DHT22;840;47.980;7.830;2023-12-20T09:42:04;8.00;99.90
1686;DHT22;840;47.980;7.830;2023-12-20T09:44:31;8.00;99.90
1686;DHT22;840;47.980;7.830;2023-12-20T09:47:02;8.00;99.90
1686;DHT22;840;47.980;7.830;2023-12-20T09:49:31;7.90;99.90
1686;DHT22;840;47.980;7.830;2023-12-20T09:52:00;8.00;99.90
1686;DHT22;840;47.980;7.830;2023-12-20T09:54:28;8.00;99.90
1686;DHT22;840;47.980;7.830;2023-12-20T09:56:56;8.00;99.90
1686;DHT22;840;47.980;7.830;2023-12-20T09:59:22;8.00;99.90
1686;DHT22;840;47.980;7.830;2023-12-20T10:01:50;7.90;99.90
1686;DHT22;840;47.980;7.830;2023-12-20T10:04:18;7.90;99.90
1686;DHT22;840;47.980;7.830;2023-12-20T10:06:47;7.80;99.90
1686;DHT22;840;47.980;7.830;2023-12-20T10:09:13;7.80;99.90
1686;DHT22;840;47.980;7.830;2023-12-20T10:11:40;7.80;99.90
1686;DHT22;840;47.980;7.830;2023-12-20T10:14:07;7.80;99.90
1686;DHT22;840;47.980;7.830;2023-12-20T10:16:34;7.90;99.90
1686;DHT22;840;47.980;7.830;2023-12-20T10:19:01;7.90;99.90
1686;DHT22;840;47.980;7.830;2023-12-20T10:21:27;7.90;99.90
1686;DHT22;840;47.980;7.830;2023-12-20T10:23:56;8.00;99.90
1686;DHT22;840;47.980;7.830;2023-12-20T10:26:24;8.00;99.90
1686;DHT22;840;47.980;7.830;2023-12-20T10:28:51;8.00;99.90
1686;DHT22;840;47.980;7.830;2023-12-20T10:31:30;8.10;99.90
1686;DHT22;840;47.980;7.830;2023-12-20T10:33:57;8.10;99.90
1686;DHT22;840;47.980;7.830;2023-12-20T10:36:25;8.20;99.90
1686;DHT22;840;47.980;7.830;2023-12-20T10:38:54;8.20;99.90
1686;DHT22;840;47.980;7.830;2023-12-20T10:41:25;8.20;99.90
1686;DHT22;840;47.980;7.830;2023-12-20T10:43:54;8.20;99.90
1686;DHT22;840;47.980;7.830;2023-12-20T10:46:22;8.30;99.90
1686;DHT22;840;47.980;7.830;2023-12-20T10:48:51;8.30;99.90
1686;DHT22;840;47.980;7.830;2023-12-20T10:51:18;8.30;99.90
1686;DHT22;840;47.980;7.830;2023-12-20T10:53:47;8.30;99.90
1686;DHT22;840;47.980;7.830;2023-12-20T10:56:16;8.30;99.90
1686;DHT22;840;47.980;7.830;2023-12-20T10:58:45;8.30;99.90
1686;DHT22;840;47.980;7.830;2023-12-20T11:01:13;8.20;99.90
1686;DHT22;840;47.980;7.830;2023-12-20T11:03:43;8.20;99.90
1686;DHT22;840;47.980;7.830;2023-12-20T11:06:18;8.20;99.90
1686;DHT22;840;47.980;7.830;2023-12-20T11:08:49;8.20;99.90
1686;DHT22;840;47.980;7.830;2023-12-20T11:11:29;8.20;99.90
1686;DHT22;840;47.980;7.830;2023-12-20T11:14:03;8.20;99.90
1686;DHT22;840;47.980;7.830;2023-12-20T11:16:31;8.20;99.90
1686;DHT22;840;47.980;7.830;2023-12-20T11:19:02;8.20;99.90
1686;DHT22;840;47.980;7.830;2023-12-20T11:21:31;8.10;99.90
1686;DHT22;840;47.980;7.830;2023-12-20T11:23:57;8.10;99.90
1686;DHT22;840;47.980;7.830;2023-12-20T11:26:27;8.10;99.90
1686;DHT22;840;47.980;7.830;2023-12-20T11:28:54;8.00;99.90
1686;DHT22;840;47.980;7.830;2023-12-20T11:31:22;8.00;99.90
1686;DHT22;840;47.980;7.830;2023-12-20T11:33:49;8.00;99.90
1686;DHT22;840;47.980;7.830;2023-12-20T11:36:18;8.00;99.90
1686;DHT22;840;47.980;7.830;2023-12-20T11:38:54;8.00;99.90
1686;DHT22;840;47.980;7.830;2023-12-20T11:41:22;7.90;99.90
1686;DHT22;840;47.980;7.830;2023-12-20T11:43:53;8.00;99.90
1686;DHT22;840;47.980;7.830;2023-12-20T11:46:19;8.00;99.90
1686;DHT22;840;47.980;7.830;2023-12-20T11:48:48;8.10;99.90
1686;DHT22;840;47.980;7.830;2023-12-20T11:51:15;8.10;99.90
1686;DHT22;840;47.980;7.830;2023-12-20T11:53:42;8.10;99.90
1686;DHT22;840;47.980;7.830;2023-12-20T11:56:09;8.10;99.90
1686;DHT22;840;47.980;7.830;2023-12-20T11:58:37;7.90;99.90
1686;DHT22;840;47.980;7.830;2023-12-20T12:01:04;8.00;99.90
1686;DHT22;840;47.980;7.830;2023-12-20T12:03:32;8.00;99.90
1686;DHT22;840;47.980;7.830;2023-12-20T12:06:01;8.00;99.90
1686;DHT22;840;47.980;7.830;2023-12-20T12:08:29;8.00;99.90
1686;DHT22;840;47.980;7.830;2023-12-20T12:10:56;8.00;99.90
1686;DHT22;840;47.980;7.830;2023-12-20T12:13:23;7.90;99.90
1686;DHT22;840;47.980;7.830;2023-12-20T12:15:53;7.90;99.90
1686;DHT22;840;47.980;7.830;2023-12-20T12:18:19;8.00;99.90
1686;DHT22;840;47.980;7.830;2023-12-20T12:20:46;8.00;99.90
1686;DHT22;840;47.980;7.830;2023-12-20T12:23:14;8.00;99.90
1686;DHT22;840;47.980;7.830;2023-12-20T12:25:49;8.10;99.90
1686;DHT22;840;47.980;7.830;2023-12-20T12:28:16;8.20;99.90
1686;DHT22;840;47.980;7.830;2023-12-20T12:30:42;8.20;99.90
1686;DHT22;840;47.980;7.830;2023-12-20T12:33:09;8.30;99.90
1686;DHT22;840;47.980;7.830;2023-12-20T12:35:36;8.30;99.90
1686;DHT22;840;47.980;7.830;2023-12-20T12:38:03;8.40;99.90
1686;DHT22;840;47.980;7.830;2023-12-20T12:40:34;8.40;99.90
1686;DHT22;840;47.980;7.830;2023-12-20T12:43:01;8.40;99.90
1686;DHT22;840;47.980;7.830;2023-12-20T12:45:29;8.50;99.90
1686;DHT22;840;47.980;7.830;2023-12-20T12:47:56;8.50;99.90
1686;DHT22;840;47.980;7.830;2023-12-20T12:50:23;8.60;99.90
1686;DHT22;840;47.980;7.830;2023-12-20T12:52:49;8.60;99.90
1686;DHT22;840;47.980;7.830;2023-12-20T12:55:16;8.70;99.90
1686;DHT22;840;47.980;7.830;2023-12-20T12:57:44;8.80;99.90
1686;DHT22;840;47.980;7.830;2023-12-20T13:00:12;8.70;99.90
1686;DHT22;840;47.980;7.830;2023-12-20T13:02:39;8.70;99.90
1686;DHT22;840;47.980;7.830;2023-12-20T13:05:07;8.70;99.90
1686;DHT22;840;47.980;7.830;2023-12-20T13:07:34;8.60;99.90
1686;DHT22;840;47.980;7.830;2023-12-20T13:10:02;8.60;99.90
1686;DHT22;840;47.980;7.830;2023-12-20T13:12:29;8.50;99.90
1686;DHT22;840;47.980;7.830;2023-12-20T13:14:57;8.50;99.90
1686;DHT22;840;47.980;7.830;2023-12-20T13:17:23;8.40;99.90
1686;DHT22;840;47.980;7.830;2023-12-20T13:19:50;8.40;99.90
1686;DHT22;840;47.980;7.830;2023-12-20T13:22:17;8.40;99.90
1686;DHT22;840;47.980;7.830;2023-12-20T13:24:44;8.40;99.90
1686;DHT22;840;47.980;7.830;2023-12-20T13:27:10;8.40;99.90
1686;DHT22;840;47.980;7.830;2023-12-20T13:29:37;8.30;99.90
1686;DHT22;840;47.980;7.830;2023-12-20T13:32:06;8.20;99.90
1686;DHT22;840;47.980;7.830;2023-12-20T13:34:33;8.10;99.90
1686;DHT22;840;47.980;7.830;2023-12-20T13:36:59;8.20;99.90
1686;DHT22;840;47.980;7.830;2023-12-20T13:39:26;8.20;99.90
1686;DHT22;840;47.980;7.830;2023-12-20T13:41:53;8.20;99.90
1686;DHT22;840;47.980;7.830;2023-12-20T13:44:20;8.20;99.90
1686;DHT22;840;47.980;7.830;2023-12-20T13:46:46;8.20;99.90
1686;DHT22;840;47.980;7.830;2023-12-20T13:49:16;8.30;99.90
1686;DHT22;840;47.980;7.830;2023-12-20T13:51:43;8.30;99.90
1686;DHT22;840;47.980;7.830;2023-12-20T13:54:10;8.30;99.90
1686;DHT22;840;47.980;7.830;2023-12-20T13:56:37;8.40;99.90
1686;DHT22;840;47.980;7.830;2023-12-20T13:59:04;8.50;99.90
1686;DHT22;840;47.980;7.830;2023-12-20T14:01:30;8.60;99.90
1686;DHT22;840;47.980;7.830;2023-12-20T14:03:57;8.60;99.90
1686;DHT22;840;47.980;7.830;2023-12-20T14:06:27;8.70;99.90
1686;DHT22;840;47.980;7.830;2023-12-20T14:08:55;8.80;99.90
1686;DHT22;840;47.980;7.830;2023-12-20T14:11:21;8.90;99.90
1686;DHT22;840;47.980;7.830;2023-12-20T14:13:48;8.80;99.90
1686;DHT22;840;47.980;7.830;2023-12-20T14:16:15;8.80;99.90
1686;DHT22;840;47.980;7.830;2023-12-20T14:18:42;8.80;99.90
1686;DHT22;840;47.980;7.830;2023-12-20T14:21:08;8.80;99.90
1686;DHT22;840;47.980;7.830;2023-12-20T14:23:37;8.80;99.90
1686;DHT22;840;47.980;7.830;2023-12-20T14:26:03;8.70;99.90
1686;DHT22;840;47.980;7.830;2023-12-20T14:28:30;8.80;99.90
1686;DHT22;840;47.980;7.830;2023-12-20T14:30:57;8.70;99.90
1686;DHT22;840;47.980;7.830;2023-12-20T14:33:24;8.70;99.90
1686;DHT22;840;47.980;7.830;2023-12-20T14:35:51;8.60;99.90
1686;DHT22;840;47.980;7.830;2023-12-20T14:38:20;8.50;99.90
1686;DHT22;840;47.980;7.830;2023-12-20T14:40:48;8.50;99.90
1686;DHT22;840;47.980;7.830;2023-12-20T14:43:16;8.40;99.90
1686;DHT22;840;47.980;7.830;2023-12-20T14:45:43;8.40;99.90
1686;DHT22;840;47.980;7.830;2023-12-20T14:48:10;8.40;99.90
1686;DHT22;840;47.980;7.830;2023-12-20T14:50:36;8.30;99.90
1686;DHT22;840;47.980;7.830;2023-12-20T14:53:06;8.30;99.90
1686;DHT22;840;47.980;7.830;2023-12-20T14:55:33;8.20;99.90
1686;DHT22;840;47.980;7.830;2023-12-20T14:58:02;8.20;99.90
1686;DHT22;840;47.980;7.830;2023-12-20T15:00:28;8.20;99.90
1686;DHT22;840;47.980;7.830;2023-12-20T15:02:55;8.20;99.90
1686;DHT22;840;47.980;7.830;2023-12-20T15:05:22;8.00;99.90
1686;DHT22;840;47.980;7.830;2023-12-20T15:07:48;8.00;99.90
1686;DHT22;840;47.980;7.830;2023-12-20T15:10:15;8.00;99.90
1686;DHT22;840;47.980;7.830;2023-12-20T15:12:43;7.90;99.90
1686;DHT22;840;47.980;7.830;2023-12-20T15:15:11;7.90;99.90
1686;DHT22;840;47.980;7.830;2023-12-20T15:17:39;7.90;99.90
1686;DHT22;840;47.980;7.830;2023-12-20T15:20:06;7.80;99.90
1686;DHT22;840;47.980;7.830;2023-12-20T15:22:35;7.80;99.90
1686;DHT22;840;47.980;7.830;2023-12-20T15:25:05;7.80;99.90
1686;DHT22;840;47.980;7.830;2023-12-20T15:27:34;7.70;99.90
1686;DHT22;840;47.980;7.830;2023-12-20T15:30:04;7.70;99.90
1686;DHT22;840;47.980;7.830;2023-12-20T15:32:33;7.60;99.90
1686;DHT22;840;47.980;7.830;2023-12-20T15:35:02;7.60;99.90
1686;DHT22;840;47.980;7.830;2023-12-20T15:37:29;7.50;99.90
1686;DHT22;840;47.980;7.830;2023-12-20T15:39:55;7.50;99.90
1686;DHT22;840;47.980;7.830;2023-12-20T15:42:22;7.40;99.90
1686;DHT22;840;47.980;7.830;2023-12-20T15:44:52;7.40;99.90
1686;DHT22;840;47.980;7.830;2023-12-20T15:47:18;7.30;99.90
1686;DHT22;840;47.980;7.830;2023-12-20T15:49:46;7.30;99.90
1686;DHT22;840;47.980;7.830;2023-12-20T15:52:14;7.20;99.90
1686;DHT22;840;47.980;7.830;2023-12-20T15:54:41;7.20;99.90
1686;DHT22;840;47.980;7.830;2023-12-20T15:57:08;7.10;99.90
1686;DHT22;840;47.980;7.830;2023-12-20T15:59:35;7.10;99.90
1686;DHT22;840;47.980;7.830;2023-12-20T16:02:02;7.00;99.90
1686;DHT22;840;47.980;7.830;2023-12-20T16:04:29;7.00;99.90
1686;DHT22;840;47.980;7.830;2023-12-20T16:06:57;6.90;99.90
1686;DHT22;840;47.980;7.830;2023-12-20T16:09:24;6.90;99.90
1686;DHT22;840;47.980;7.830;2023-12-20T16:11:50;6.90;99.90
1686;DHT22;840;47.980;7.830;2023-12-20T16:14:17;6.80;99.90
1686;DHT22;840;47.980;7.830;2023-12-20T16:16:45;6.80;99.90
1686;DHT22;840;47.980;7.830;2023-12-20T16:19:12;6.80;99.90
1686;DHT22;840;47.980;7.830;2023-12-20T16:21:39;6.80;99.90
1686;DHT22;840;47.980;7.830;2023-12-20T16:24:07;6.70;99.90
1686;DHT22;840;47.980;7.830;2023-12-20T16:26:34;6.70;99.90
1686;DHT22;840;47.980;7.830;2023-12-20T16:29:01;6.70;99.90
1686;DHT22;840;47.980;7.830;2023-12-20T16:31:28;6.70;99.90
1686;DHT22;840;47.980;7.830;2023-12-20T16:33:54;6.80;99.90